Latest Weather Observations for Albion Park

IDN60801

Issued at 9:35 am EDT Sunday 26 October 2014 (issued every 30 minutes, with the page automatically refreshed every 10 minutes)

About weather observations | Map of weather stations | Latest weather observations for NSW | Other Formats
Station Details ID: 068241 Name: WOLLONGONG AIRPORT Lat: -34.56 Lon: 150.79 Height: 8.0 m
Data from the previous 72 hours. | See also: Recent months at Albion Park
Date/Time
EDT
Temp
°C
App
Temp
°C
Dew
Point
Rel
Hum
%
Delta-T
°C
Wind Press
QNH
hPa
Press
MSL
hPa
Rain
since 9 am
mm
Dir
 
Spd
km/h
Gust
km/h
Spd
kts
Gust
kts
26/09:32am 20.1 22.0 18.6 91 0.9 SSW 6 9 3 5 1010.0 1010.0 0.0
26/09:30am 20.0 21.9 18.5 91 0.9 SSW 6 9 3 5 1010.0 1010.0 0.0
26/09:00am 18.6 20.8 18.3 98 0.2 SSW 4 9 2 5 1010.3 1010.3 0.0
26/08:51am 18.3 20.8 18.1 99 0.1 SSW 2 6 1 3 1010.3 1010.3 0.0
26/08:30am 17.9 20.3 17.9 100 0.0 SSW 2 7 1 4 1010.4 1010.4 0.0
26/08:00am 17.8 19.8 17.8 100 0.0 SSW 4 7 2 4 1010.7 1010.7 0.0
26/07:30am 17.4 18.8 17.4 100 0.0 SSW 6 7 3 4 1010.9 1010.9 0.0
26/07:12am 16.7 17.6 16.7 100 0.0 SSW 7 9 4 5 1010.8 1010.8 0.0
26/07:00am 16.4 17.4 16.4 100 0.0 SSW 6 7 3 4 1010.8 1010.8 0.0
26/06:30am 16.1 18.1 15.9 99 0.1 CALM 0 0 0 0 1010.6 1010.6 0.0
26/06:00am 15.3 15.8 15.1 99 0.1 SSW 6 9 3 5 1010.5 1010.5 0.0
26/05:32am 14.7 15.4 14.5 99 0.1 SSW 4 9 2 5 1010.5 1010.5 0.0
26/05:30am 14.8 15.5 14.6 99 0.1 SSW 4 9 2 5 1010.6 1010.6 0.0
26/05:03am 15.1 15.9 14.8 98 0.2 SSW 4 7 2 4 1010.6 1010.6 0.0
26/05:00am 15.2 15.7 14.9 98 0.2 SSW 6 7 3 4 1010.7 1010.7 0.0
26/04:30am 15.7 17.1 15.4 98 0.2 SSW 2 6 1 3 1010.7 1010.7 0.0
26/04:00am 16.3 17.0 16.1 99 0.1 SSW 7 9 4 5 1011.1 1011.1 0.0
26/03:30am 16.7 18.5 16.5 99 0.1 SSW 2 6 1 3 1011.5 1011.5 0.0
26/03:00am 16.6 18.7 16.3 98 0.2 CALM 0 0 0 0 1012.0 1012.0 0.0
26/02:30am 17.3 19.4 17.1 99 0.1 SSW 2 7 1 4 1012.7 1012.7 0.0
26/02:16am 16.7 17.5 16.4 98 0.2 SSW 7 9 4 5 1012.6 1012.6 0.0
26/02:03am 16.6 17.6 16.3 98 0.2 SSW 6 7 3 4 1012.8 1012.8 0.0
26/02:01am 16.7 17.7 16.4 98 0.2 SSW 6 7 3 4 1012.8 1012.8 0.0
26/02:00am 16.6 17.6 16.3 98 0.2 SSW 6 7 3 4 1012.9 1012.9 0.0
26/01:47am 17.0 17.6 16.7 98 0.2 SSW 9 11 5 6 1013.2 1013.2 0.0
26/01:30am 17.3 18.3 16.8 97 0.3 SSW 7 9 4 5 1013.4 1013.4 0.0
26/01:23am 16.9 17.9 16.3 96 0.4 SSW 6 7 3 4 1013.4 1013.4 0.0
26/01:00am 17.4 19.0 16.8 96 0.4 SSW 4 6 2 3 1013.7 1013.7 0.0
26/12:30am 17.7 18.7 16.9 95 0.5 SSW 7 11 4 6 1013.9 1013.9 0.0
26/12:00am 18.4 19.7 17.2 93 0.7 SE 6 9 3 5 1014.5 1014.5 0.0
 
Date/Time
EDT
Temp
°C
App
Temp
°C
Dew
Point
Rel
Hum
%
Delta-T
°C
Wind Press
QNH
hPa
Press
MSL
hPa
Rain
since 9 am
mm
Dir
 
Spd
km/h
Gust
km/h
Spd
kts
Gust
kts
25/11:30pm 19.3 20.9 17.8 91 0.9 NE 6 17 3 9 1015.2 1015.2 0.0
25/11:10pm 19.4 19.7 17.9 91 0.9 NNW 13 15 7 8 1016.1 1016.1 0.0
25/11:00pm 19.4 21.0 17.9 91 0.9 W 6 11 3 6 1017.2 1017.2 0.0
25/10:30pm 19.4 21.6 17.4 88 1.2 NNE 2 7 1 4 1016.2 1016.2 0.0
25/10:00pm 19.3 21.7 16.9 86 1.4 CALM 0 0 0 0 1016.4 1016.4 0.0
25/09:30pm 19.4 20.4 16.8 85 1.6 NNW 7 9 4 5 1016.1 1016.1 0.0
25/09:00pm 19.4 20.1 17.0 86 1.5 SSW 9 11 5 6 1016.4 1016.4 0.0
25/08:30pm 19.2 20.3 16.6 85 1.6 SSE 6 9 3 5 1015.9 1015.9 0.0
25/08:00pm 19.0 18.8 16.8 87 1.3 SE 13 19 7 10 1016.0 1016.0 0.0
25/07:30pm 19.0 18.9 17.0 88 1.2 SE 13 20 7 11 1015.4 1015.4 0.0
25/07:00pm 19.3 18.8 16.9 86 1.5 SSE 15 24 8 13 1015.1 1015.1 0.0
25/06:30pm 20.4 20.9 17.4 83 1.8 SE 11 20 6 11 1015.1 1015.1 0.0
25/06:00pm 21.1 22.1 17.7 81 2.1 SE 9 15 5 8 1014.4 1014.4 0.0
25/05:30pm 20.7 20.7 17.3 81 2.1 SE 13 22 7 12 1014.4 1014.4 0.0
25/05:00pm 21.2 20.6 17.6 80 2.2 SE 17 24 9 13 1014.2 1014.2 0.0
25/04:52pm 21.5 21.0 17.7 79 2.3 SE 17 24 9 13 1014.2 1014.2 0.0
25/04:30pm 22.4 21.5 17.8 75 2.9 SE 19 26 10 14 1014.0 1014.0 0.0
25/04:00pm 23.6 23.7 19.1 76 2.9 SE 17 24 9 13 1013.9 1013.9 0.0
25/03:30pm 23.8 23.8 18.9 74 3.1 ESE 17 24 9 13 1013.7 1013.7 0.0
25/03:00pm 24.7 25.4 18.9 70 3.7 E 13 20 7 11 1013.7 1013.7 0.0
25/02:30pm 25.1 26.1 19.5 71 3.6 ESE 13 20 7 11 1013.9 1013.9 0.0
25/02:00pm 25.2 25.4 19.3 70 3.8 E 17 24 9 13 1014.4 1014.4 0.0
25/01:30pm 26.0 26.3 19.6 68 4.1 E 17 24 9 13 1014.3 1014.3 0.0
25/01:00pm 26.9 27.7 19.0 62 5.1 ENE 13 20 7 11 1014.3 1014.3 0.0
25/12:30pm 27.3 28.0 19.6 62 5.0 E 15 20 8 11 1014.4 1014.4 0.0
25/12:00pm 27.5 28.2 18.8 59 5.6 NE 13 17 7 9 1014.6 1014.6 0.0
25/11:30am 27.3 26.9 18.0 56 5.9 NNE 17 20 9 11 1014.9 1014.9 0.0
25/11:00am 25.6 24.9 18.3 64 4.6 NE 19 24 10 13 1015.0 1015.0 0.0
25/10:30am 26.1 25.7 17.2 58 5.5 NE 15 19 8 10 1014.9 1014.9 0.0
25/10:00am 26.2 27.1 19.3 65 4.4 NNE 13 17 7 9 1014.9 1014.9 0.0
25/09:30am 23.8 24.1 18.0 70 3.6 NE 13 17 7 9 1014.9 1014.9 0.0
25/09:00am 24.0 24.2 17.7 68 3.9 NNE 13 15 7 8 1014.8 1014.8 0.0
25/08:30am 23.6 24.3 17.1 67 4.0 NE 9 11 5 6 1014.9 1014.9 0.0
25/08:00am 21.3 22.1 18.1 82 2.0 NE 11 13 6 7 1014.6 1014.6 0.0
25/07:30am 19.9 21.3 18.7 93 0.7 ENE 9 13 5 7 1014.6 1014.6 0.0
25/07:00am 18.1 19.7 17.9 99 0.1 NNW 6 9 3 5 1014.4 1014.4 0.0
25/06:50am 17.3 19.7 17.1 99 0.1 CALM 0 0 0 0 1014.3 1014.3 0.0
25/06:30am 16.3 17.9 16.0 98 0.2 W 2 6 1 3 1014.2 1014.2 0.0
25/06:00am 16.6 17.1 15.6 94 0.6 WSW 7 9 4 5 1013.6 1013.6 0.0
25/05:33am 18.0 20.6 17.4 96 0.4 CALM 0 0 0 0 1013.3 1013.3 0.0
25/05:30am 18.0 20.6 17.4 96 0.4 CALM 0 4 0 2 1013.2 1013.2 0.0
25/05:10am 18.5 19.5 17.7 95 0.5 WSW 9 11 5 6 1012.9 1012.9 0.0
25/05:00am 18.8 20.3 18.0 95 0.5 W 7 11 4 6 1012.9 1012.9 0.0
25/04:30am 19.3 21.4 18.1 93 0.7 W 4 6 2 3 1012.7 1012.7 0.0
25/04:00am 19.6 22.2 18.4 93 0.7 W 2 7 1 4 1012.6 1012.6 0.0
25/03:30am 19.7 22.7 18.5 93 0.7 CALM 0 0 0 0 1012.4 1012.4 0.0
25/03:00am 19.8 23.0 18.8 94 0.6 CALM 0 0 0 0 1012.4 1012.4 0.0
25/02:30am 19.7 22.8 18.7 94 0.6 CALM 0 0 0 0 1012.4 1012.4 0.0
25/02:00am 19.7 22.1 18.7 94 0.6 WNW 4 6 2 3 1012.6 1012.6 0.0
25/01:30am 19.8 21.8 18.8 94 0.6 W 6 7 3 4 1013.0 1013.0 0.0
25/01:00am 19.9 21.9 18.7 93 0.7 WNW 6 9 3 5 1013.2 1013.2 0.0
25/12:30am 20.2 21.6 18.7 91 0.9 NW 9 13 5 7 1013.6 1013.6 0.0
25/12:00am 20.3 22.6 18.6 90 1.1 N 4 7 2 4 1013.5 1013.5 0.0
 
Date/Time
EDT
Temp
°C
App
Temp
°C
Dew
Point
Rel
Hum
%
Delta-T
°C
Wind Press
QNH
hPa
Press
MSL
hPa
Rain
since 9 am
mm
Dir
 
Spd
km/h
Gust
km/h
Spd
kts
Gust
kts
24/11:30pm 20.3 21.7 18.6 90 1.1 NNE 9 15 5 8 1013.7 1013.7 0.0
24/11:01pm 20.2 22.5 18.5 90 1.1 ENE 4 9 2 5 1013.8 1013.8 0.0
24/11:00pm 20.2 22.5 18.5 90 1.1 ENE 4 9 2 5 1013.8 1013.8 0.0
24/10:30pm 20.2 21.9 18.5 90 1.1 E 7 15 4 8 1014.1 1014.1 0.0
24/10:00pm 20.4 21.0 18.5 89 1.2 SSE 13 20 7 11 1014.5 1014.5 0.0
24/09:30pm 20.2 21.2 18.7 91 0.9 SW 11 15 6 8 1014.0 1014.0 0.0
24/09:00pm 20.3 22.1 18.8 91 0.9 S 7 9 4 5 1014.1 1014.1 0.0
24/08:30pm 20.1 21.8 18.6 91 0.9 W 7 11 4 6 1013.0 1013.0 0.0
24/08:00pm 20.7 21.6 18.5 87 1.4 NE 11 15 6 8 1013.0 1013.0 0.0
24/07:30pm 20.9 21.6 18.8 88 1.3 NE 13 17 7 9 1013.0 1013.0 0.0
24/07:00pm 21.1 21.5 18.9 87 1.4 NE 15 19 8 10 1012.9 1012.9 0.0
24/06:30pm 21.1 20.6 18.7 86 1.5 NE 19 26 10 14 1012.6 1012.6 0.0
24/06:00pm 21.8 20.9 19.0 84 1.8 ENE 22 32 12 17 1012.6 1012.6 0.0
24/05:30pm 21.8 21.4 18.8 83 1.9 ENE 19 28 10 15 1012.7 1012.7 0.0
24/05:00pm 22.2 21.4 19.2 83 1.9 ENE 22 28 12 15 1012.8 1012.8 0.0
24/04:30pm 22.9 22.7 19.3 80 2.3 ENE 19 24 10 13 1012.9 1012.9 0.0
24/04:00pm 22.8 22.1 19.4 81 2.2 ENE 22 30 12 16 1013.3 1013.3 0.0
24/03:30pm 22.8 21.6 19.2 80 2.3 ENE 24 30 13 16 1013.8 1013.8 0.0
24/03:00pm 22.4 20.7 19.0 81 2.2 ENE 26 33 14 18 1014.2 1014.2 0.0
24/02:30pm 23.2 21.6 19.1 78 2.6 NE 26 33 14 18 1014.6 1014.6 0.0
24/02:00pm 22.7 20.7 19.1 80 2.3 NE 28 37 15 20 1015.1 1015.1 0.0
24/01:30pm 23.0 21.5 18.5 76 2.8 NE 24 32 13 17 1015.7 1015.7 0.0
24/01:00pm 23.5 21.6 18.6 74 3.1 NE 26 33 14 18 1016.1 1016.1 0.0
24/12:30pm 23.2 22.0 18.3 74 3.1 NE 22 30 12 16 1016.7 1016.7 0.0
24/12:00pm 23.1 22.2 18.2 74 3.1 NE 20 28 11 15 1017.4 1017.4 0.0
24/11:30am 22.4 21.5 18.2 77 2.6 NE 20 24 11 13 1018.2 1018.2 0.0
24/11:00am 21.8 21.6 16.7 73 3.1 NE 13 17 7 9 1018.8 1018.8 0.0
24/10:30am 21.8 20.8 16.5 72 3.2 E 17 20 9 11 1018.7 1018.7 0.0
24/10:00am 21.7 20.9 16.2 71 3.3 E 15 20 8 11 1018.4 1018.4 0.0
24/09:30am 21.3 22.2 16.7 75 2.8 E 7 13 4 7 1019.6 1019.6 0.0
24/09:00am 19.8 20.8 16.4 81 2.0 ESE 6 7 3 4 1019.3 1019.3 0.0
24/08:30am 19.0 21.2 16.4 85 1.6 CALM 0 0 0 0 1018.9 1018.9 0.0
24/08:00am 17.8 18.0 15.8 88 1.2 W 9 13 5 7 1018.9 1018.9 0.0
24/07:30am 17.2 17.9 16.1 93 0.7 W 7 13 4 7 1018.7 1018.7 0.0
24/07:00am 16.7 17.6 16.1 96 0.4 SSW 6 9 3 5 1018.8 1018.8 0.0
24/06:30am 16.6 16.9 16.0 96 0.4 SSE 9 13 5 7 1019.0 1019.0 0.0
24/06:00am 16.6 15.8 16.1 97 0.3 W 15 17 8 9 1019.9 1019.9 0.0
24/05:30am 17.3 17.9 16.8 97 0.3 W 9 13 5 7 1019.1 1019.1 0.0
24/05:00am 17.0 17.8 16.4 96 0.4 WNW 7 15 4 8 1019.8 1019.8 0.0
24/04:30am 17.3 18.2 16.2 93 0.7 W 6 9 3 5 1019.6 1019.6 0.0
24/04:00am 17.9 17.9 17.3 96 0.4 E 13 17 7 9 1019.2 1019.2 0.0
24/03:30am 17.6 18.9 17.0 96 0.4 WSW 6 9 3 5 1019.9 1019.9 0.0
24/03:00am 17.3 16.5 17.0 98 0.2 W 17 20 9 11 1019.5 1019.5 0.0
24/02:32am 17.4 17.7 16.9 97 0.3 WSW 11 15 6 8 1019.0 1019.0 0.0
24/02:30am 17.5 17.8 17.0 97 0.3 W 11 15 6 8 1019.0 1019.0 0.0
24/02:10am 17.8 18.6 17.3 97 0.3 W 9 11 5 6 1019.3 1019.3 0.0
24/02:00am 17.6 18.3 17.0 96 0.4 W 9 11 5 6 1019.1 1019.1 0.0
24/01:30am 18.5 18.8 17.8 96 0.4 N 13 17 7 9 1018.9 1018.9 0.0
24/01:00am 18.3 17.4 17.7 96 0.4 NNE 19 22 10 12 1020.2 1020.2 0.0
24/12:30am 17.5 19.9 17.0 97 0.3 CALM 0 6 0 3 1021.6 1021.6 0.0
24/12:28am 17.6 19.7 17.1 97 0.3 SSW 2 6 1 3 1021.7 1021.7 0.0
24/12:00am 17.2 17.8 16.7 97 0.3 SSW 9 11 5 6 1021.7 1021.7 0.0
 
Date/Time
EDT
Temp
°C
App
Temp
°C
Dew
Point
Rel
Hum
%
Delta-T
°C
Wind Press
QNH
hPa
Press
MSL
hPa
Rain
since 9 am
mm
Dir
 
Spd
km/h
Gust
km/h
Spd
kts
Gust
kts
23/11:41pm 17.2 18.2 16.4 95 0.5 SSW 6 9 3 5 1021.4 1021.4 0.0
23/11:30pm 17.7 18.8 17.1 96 0.4 SSW 7 9 4 5 1021.3 1021.3 0.0
23/11:00pm 17.7 19.8 17.1 96 0.4 SSW 2 6 1 3 1021.3 1021.3 0.0
23/10:30pm 17.5 19.8 16.7 95 0.5 CALM 0 0 0 0 1020.9 1020.9 0.0
23/10:00pm 17.5 19.5 17.0 97 0.3 SSW 2 6 1 3 1020.6 1020.6 0.0
23/09:30pm 17.1 17.6 16.6 97 0.3 SSW 9 11 5 6 1020.4 1020.4 0.0
23/09:00pm 17.2 18.9 16.1 93 0.6 S 2 7 1 4 1020.0 1020.0 0.0
23/08:30pm 17.9 18.9 16.4 91 0.9 SSE 6 9 3 5 1019.9 1019.9 0.0
23/08:00pm 19.0 21.4 17.0 88 1.2 CALM 0 0 0 0 1019.4 1019.4 0.0
23/07:48pm 19.2 21.7 17.2 88 1.2 CALM 0 0 0 0 1019.3 1019.3 0.0
23/07:31pm 19.5 21.9 16.9 85 1.6 CALM 0 7 0 4 1019.1 1019.1 0.0
23/07:30pm 19.7 22.1 17.1 85 1.6 CALM 0 0 0 0 1019.2 1019.2 0.0
23/07:00pm 20.5 21.8 17.5 83 1.8 ENE 7 11 4 6 1019.0 1019.0 0.0
23/06:30pm 21.0 20.6 17.2 79 2.3 E 15 17 8 9 1018.3 1018.3 0.0
23/06:00pm 21.5 21.8 16.9 75 2.8 E 11 13 6 7 1017.9 1017.9 0.0
23/05:30pm 22.2 22.5 17.1 73 3.1 NE 11 15 6 8 1017.3 1017.3 0.0
23/05:00pm 22.4 22.2 17.5 74 3.0 NNE 15 20 8 11 1017.2 1017.2 0.0
23/04:30pm 23.5 23.5 18.2 72 3.3 NE 15 19 8 10 1016.9 1016.9 0.0
23/04:00pm 24.0 23.2 17.0 65 4.3 E 17 22 9 12 1016.6 1016.6 0.0
23/03:30pm 24.8 24.0 17.0 62 4.8 E 17 24 9 13 1016.6 1016.6 0.0
23/03:00pm 24.9 23.3 16.6 60 5.1 ESE 20 30 11 16 1016.3 1016.3 0.0
23/02:30pm 26.3 25.8 16.8 56 5.9 E 15 22 8 12 1016.4 1016.4 0.0
23/02:00pm 26.4 26.0 17.2 57 5.7 E 15 19 8 10 1016.6 1016.6 0.0
23/01:30pm 25.7 24.1 16.0 55 5.9 E 19 26 10 14 1016.8 1016.8 0.0
23/01:00pm 26.2 25.6 16.7 56 5.9 E 15 19 8 10 1017.0 1017.0 0.0
23/12:30pm 26.1 26.0 16.9 57 5.7 E 13 19 7 10 1017.0 1017.0 0.0
23/12:00pm 25.6 24.9 17.3 60 5.2 NE 17 20 9 11 1017.3 1017.3 0.0
23/11:30am 25.4 25.4 16.3 57 5.6 ENE 11 17 6 9 1017.5 1017.5 0.0
23/11:00am 25.1 25.3 15.7 56 5.7 NE 9 13 5 7 1017.6 1017.6 0.0
23/10:30am 24.2 24.3 15.4 58 5.3 ENE 9 13 5 7 1017.6 1017.6 0.0
23/10:00am 23.0 23.8 15.8 64 4.3 NNW 6 7 3 4 1017.7 1017.7 0.0

Other Formats:

Comma delimited format used in spreadsheet applications
http://www.bom.gov.au/fwo/IDN60801/IDN60801.95748.axf

JavaScript Object Notation format (JSON) in row-major order
http://www.bom.gov.au/fwo/IDN60801/IDN60801.95748.json